Time;durP1;ratioP1;P1;durP2;ratioP2;P2;SDS_P1;SDS_P2;PMS_P1;PMS_P2;Temp;Humidity;BMP_temperature;BMP_pressure;BME280_temperature;BME280_humidity;BME280_pressure;Samples;Min_cycle;Max_cycle;Signal;HPM_P1;HPM_P2
2023/08/30 00:00:17;;;;;;;6.00;5.40;;;13.00;99.90;;;;;;4896609;29;20505;-68
2023/08/30 00:02:44;;;;;;;5.20;4.80;;;13.00;99.90;;;;;;4896724;29;20978;-68
2023/08/30 00:05:10;;;;;;;5.80;5.20;;;13.00;99.90;;;;;;4896699;29;20906;-69
2023/08/30 00:07:37;;;;;;;6.50;5.60;;;13.00;99.90;;;;;;4896560;29;20206;-69
2023/08/30 00:10:07;;;;;;;5.67;5.17;;;13.00;99.90;;;;;;4896127;29;20925;-68
2023/08/30 00:12:34;;;;;;;6.10;5.27;;;13.00;99.90;;;;;;4896045;29;20514;-69
2023/08/30 00:15:01;;;;;;;7.37;5.37;;;13.00;99.90;;;;;;4895841;29;20463;-69
2023/08/30 00:17:28;;;;;;;6.10;5.50;;;13.00;99.90;;;;;;4896404;29;20970;-68
2023/08/30 00:19:55;;;;;;;6.20;4.60;;;13.00;99.90;;;;;;4895909;29;20494;-68
2023/08/30 00:22:23;;;;;;;5.10;4.60;;;13.00;99.90;;;;;;4895955;29;20458;-68
2023/08/30 00:24:50;;;;;;;5.55;4.95;;;13.00;99.90;;;;;;4896082;29;20459;-68
2023/08/30 00:27:20;;;;;;;7.60;5.33;;;13.00;99.90;;;;;;4896117;29;20217;-68
2023/08/30 00:29:46;;;;;;;6.33;5.73;;;13.00;99.90;;;;;;4895796;29;20983;-69
2023/08/30 00:32:13;;;;;;;5.43;4.93;;;13.00;99.90;;;;;;4895678;29;20463;-69
2023/08/30 00:34:40;;;;;;;5.68;5.18;;;13.00;99.90;;;;;;4891412;29;20297;-69
2023/08/30 00:37:08;;;;;;;5.47;4.90;;;13.00;99.90;;;;;;4895125;29;20210;-68
2023/08/30 00:39:38;;;;;;;6.27;5.70;;;13.00;99.90;;;;;;4895621;29;20503;-69
2023/08/30 00:42:07;;;;;;;5.27;4.77;;;13.00;99.90;;;;;;4895029;29;20466;-68
2023/08/30 00:44:35;;;;;;;6.20;5.00;;;13.10;99.90;;;;;;4895730;29;20494;-68
2023/08/30 00:47:03;;;;;;;5.50;5.00;;;13.10;99.90;;;;;;4895304;29;20467;-68
2023/08/30 00:49:30;;;;;;;6.45;5.85;;;13.10;99.90;;;;;;4880599;29;20483;-68
2023/08/30 00:51:58;;;;;;;5.50;5.00;;;13.10;99.90;;;;;;4895161;29;20235;-68
2023/08/30 00:54:25;;;;;;;5.67;5.17;;;13.10;99.90;;;;;;4895220;29;20467;-67
2023/08/30 00:56:52;;;;;;;6.33;5.77;;;13.10;99.90;;;;;;4895368;29;20460;-68
2023/08/30 00:59:19;;;;;;;5.70;5.17;;;13.10;99.90;;;;;;4895069;29;20519;-68
2023/08/30 01:01:48;;;;;;;5.43;4.93;;;13.10;99.90;;;;;;4895170;29;20841;-68
2023/08/30 01:04:15;;;;;;;5.83;5.23;;;13.10;99.90;;;;;;4895171;29;20785;-67
2023/08/30 01:06:42;;;;;;;6.13;5.53;;;13.10;99.90;;;;;;4895691;29;20896;-68
2023/08/30 01:09:09;;;;;;;7.00;5.40;;;13.10;99.90;;;;;;4895089;29;20853;-68
2023/08/30 01:11:41;;;;;;;6.10;5.23;;;13.10;99.90;;;;;;4894963;29;20499;-68
2023/08/30 01:14:13;;;;;;;5.77;5.27;;;13.10;99.90;;;;;;4894909;29;20932;-68
2023/08/30 01:16:40;;;;;;;4.93;4.53;;;13.10;99.90;;;;;;4895478;29;20874;-68
2023/08/30 01:19:25;;;;;;;5.82;5.25;;;13.10;99.90;;;;;;4894403;29;20499;-68
2023/08/30 01:22:03;;;;;;;8.10;5.80;;;13.00;99.90;;;;;;4894857;29;20212;-68
2023/08/30 01:24:38;;;;;;;6.27;5.67;;;13.00;99.90;;;;;;4895234;29;20473;-68
2023/08/30 01:27:11;;;;;;;5.80;5.30;;;13.00;99.90;;;;;;4894982;29;20466;-68
2023/08/30 01:29:39;;;;;;;6.20;5.60;;;13.00;99.90;;;;;;4894909;29;20510;-68
2023/08/30 01:32:08;;;;;;;6.30;5.70;;;13.00;99.90;;;;;;4894390;29;20474;-68
2023/08/30 01:34:36;;;;;;;6.60;5.63;;;13.00;99.90;;;;;;4894921;29;20218;-68
2023/08/30 01:37:03;;;;;;;6.30;5.75;;;13.00;99.90;;;;;;4894986;29;20458;-68
2023/08/30 01:39:31;;;;;;;6.47;5.30;;;13.00;99.90;;;;;;4894782;29;20230;-68
2023/08/30 01:41:58;;;;;;;5.60;5.10;;;13.00;99.90;;;;;;4894623;29;20459;-68
2023/08/30 01:44:28;;;;;;;6.03;5.43;;;13.00;99.90;;;;;;4894965;29;20462;-68
2023/08/30 01:46:55;;;;;;;5.07;4.67;;;12.90;99.90;;;;;;4894901;29;20841;-68
2023/08/30 01:49:22;;;;;;;5.80;5.30;;;12.90;99.90;;;;;;4895017;29;20514;-68
2023/08/30 01:51:51;;;;;;;5.97;5.37;;;12.90;99.90;;;;;;4898703;29;20470;-68
2023/08/30 01:54:19;;;;;;;6.27;5.67;;;12.90;99.90;;;;;;4898681;29;20469;-68
2023/08/30 01:56:47;;;;;;;6.20;5.60;;;12.90;99.90;;;;;;4898824;29;20502;-67
2023/08/30 01:59:14;;;;;;;6.17;5.57;;;12.90;99.90;;;;;;4898562;29;20486;-68
2023/08/30 02:01:42;;;;;;;4.83;4.40;;;12.90;99.90;;;;;;4898839;29;20856;-68
2023/08/30 02:04:09;;;;;;;6.70;5.60;;;12.90;99.90;;;;;;4898627;29;20473;-68
2023/08/30 02:06:43;;;;;;;6.20;5.30;;;12.90;99.90;;;;;;4898918;29;20487;-68
2023/08/30 02:09:15;;;;;;;5.13;4.57;;;12.90;99.90;;;;;;4898497;29;20478;-67
2023/08/30 02:11:44;;;;;;;7.00;5.77;;;12.90;99.90;;;;;;4898632;29;20989;-68
2023/08/30 02:14:16;;;;;;;5.97;5.43;;;12.90;99.90;;;;;;4898556;29;20470;-68
2023/08/30 02:16:46;;;;;;;6.13;5.53;;;12.90;99.90;;;;;;4898696;29;20468;-68
2023/08/30 02:19:16;;;;;;;5.97;5.47;;;12.90;99.90;;;;;;4898385;29;20483;-68
2023/08/30 02:21:43;;;;;;;6.57;5.97;;;12.90;99.90;;;;;;4898326;29;20463;-68
2023/08/30 02:24:10;;;;;;;5.73;5.20;;;12.90;99.90;;;;;;4898553;29;20466;-68
2023/08/30 02:26:37;;;;;;;6.47;5.88;;;12.90;99.90;;;;;;4898486;29;20466;-68
2023/08/30 02:29:04;;;;;;;5.70;5.20;;;12.90;99.90;;;;;;4898144;29;20250;-68
2023/08/30 02:31:31;;;;;;;5.30;4.80;;;12.90;99.90;;;;;;4897863;29;20471;-68
2023/08/30 02:33:59;;;;;;;5.37;4.97;;;13.00;99.90;;;;;;4898167;29;20470;-68
2023/08/30 02:36:25;;;;;;;6.70;6.10;;;13.00;99.90;;;;;;4898258;29;20459;-68
2023/08/30 02:38:52;;;;;;;6.23;5.43;;;12.90;99.90;;;;;;4897912;29;20491;-68
2023/08/30 02:41:19;;;;;;;5.90;5.23;;;12.80;99.90;;;;;;4897923;29;20836;-68
2023/08/30 02:43:45;;;;;;;6.20;5.60;;;12.90;99.90;;;;;;4898092;29;20470;-68
2023/08/30 02:46:12;;;;;;;5.90;5.40;;;12.80;99.90;;;;;;4897898;29;20467;-68
2023/08/30 02:48:39;;;;;;;6.47;5.87;;;12.80;99.90;;;;;;4897757;29;20462;-68
2023/08/30 02:51:07;;;;;;;6.10;5.55;;;12.80;99.90;;;;;;4897586;29;20463;-68
2023/08/30 02:53:34;;;;;;;6.90;6.20;;;12.70;99.90;;;;;;4897870;29;20203;-68
2023/08/30 02:56:00;;;;;;;6.23;5.50;;;12.70;99.90;;;;;;4897905;29;20467;-68
2023/08/30 02:58:27;;;;;;;5.50;4.97;;;12.70;99.90;;;;;;4897510;29;20471;-68
2023/08/30 03:00:54;;;;;;;6.23;5.33;;;12.70;99.90;;;;;;4897217;29;20466;-68
2023/08/30 03:03:21;;;;;;;6.05;5.45;;;12.70;99.90;;;;;;4897217;29;20462;-68
2023/08/30 03:05:47;;;;;;;6.47;5.87;;;12.70;99.90;;;;;;4893422;29;20207;-68
2023/08/30 03:08:15;;;;;;;6.07;5.45;;;12.70;99.90;;;;;;4897512;29;20533;-68
2023/08/30 03:10:42;;;;;;;6.50;5.90;;;12.70;99.90;;;;;;4896822;29;20304;-68
2023/08/30 03:13:09;;;;;;;8.73;5.85;;;12.60;99.90;;;;;;4895506;29;20466;-68
2023/08/30 03:15:35;;;;;;;6.53;5.17;;;12.70;99.90;;;;;;4897498;29;20250;-68
2023/08/30 03:18:02;;;;;;;6.13;5.53;;;12.60;99.90;;;;;;4897382;29;20473;-68
2023/08/30 03:20:29;;;;;;;7.27;6.03;;;12.60;99.90;;;;;;4897415;29;20486;-68
2023/08/30 03:22:57;;;;;;;5.03;4.53;;;12.50;99.90;;;;;;4897056;29;20468;-68
2023/08/30 03:25:25;;;;;;;6.47;5.83;;;12.50;99.90;;;;;;4897403;29;20471;-67
2023/08/30 03:27:53;;;;;;;6.17;5.57;;;12.50;99.90;;;;;;4897018;29;20470;-67
2023/08/30 03:30:20;;;;;;;8.00;6.67;;;12.40;99.90;;;;;;4875440;29;20487;-67
2023/08/30 03:32:47;;;;;;;6.20;5.60;;;12.40;99.90;;;;;;4889306;29;20462;-67
2023/08/30 03:35:14;;;;;;;6.80;6.10;;;12.40;99.90;;;;;;4894207;29;20198;-67
2023/08/30 03:37:41;;;;;;;6.13;5.57;;;12.40;99.90;;;;;;4894733;29;20493;-68
2023/08/30 03:40:09;;;;;;;5.65;5.15;;;12.40;99.90;;;;;;4894563;29;20584;-67
2023/08/30 03:42:37;;;;;;;6.60;6.00;;;12.40;99.90;;;;;;4886499;29;20213;-67
2023/08/30 03:45:05;;;;;;;6.13;5.53;;;12.40;99.90;;;;;;4896733;29;21045;-67
2023/08/30 03:47:32;;;;;;;7.45;5.70;;;12.40;99.90;;;;;;4894702;29;20230;-68
2023/08/30 03:49:59;;;;;;;6.70;5.47;;;12.40;99.90;;;;;;4896669;29;20222;-68
2023/08/30 03:52:25;;;;;;;6.97;6.27;;;12.40;99.90;;;;;;4896699;29;20467;-68
2023/08/30 03:54:52;;;;;;;5.93;5.33;;;12.50;99.90;;;;;;4896968;29;20470;-68
2023/08/30 03:57:19;;;;;;;5.37;4.87;;;12.50;99.90;;;;;;4896955;29;20473;-67
2023/08/30 03:59:47;;;;;;;6.40;5.80;;;12.40;99.90;;;;;;4896554;29;20487;-68
2023/08/30 04:02:13;;;;;;;7.38;5.95;;;12.50;99.90;;;;;;4896673;29;20204;-68
2023/08/30 04:04:40;;;;;;;6.53;5.63;;;12.40;99.90;;;;;;4896725;29;20212;-68
2023/08/30 04:07:07;;;;;;;7.18;5.60;;;12.40;99.90;;;;;;4896774;29;20458;-68
2023/08/30 04:09:33;;;;;;;5.93;5.32;;;12.40;99.90;;;;;;4896533;29;20234;-68
2023/08/30 04:12:00;;;;;;;6.67;6.07;;;12.40;99.90;;;;;;4896035;29;20207;-67
2023/08/30 04:14:27;;;;;;;6.87;6.17;;;12.40;99.90;;;;;;4877255;29;20539;-67
2023/08/30 04:16:55;;;;;;;6.87;5.97;;;12.40;99.90;;;;;;4897064;29;20521;-68
2023/08/30 04:19:22;;;;;;;6.43;5.78;;;12.40;99.90;;;;;;4895082;29;20998;-68
2023/08/30 04:21:48;;;;;;;7.30;5.95;;;12.40;99.90;;;;;;4896625;29;20206;-68
2023/08/30 04:24:15;;;;;;;7.03;6.32;;;12.40;99.90;;;;;;4896552;29;20698;-68
2023/08/30 04:26:42;;;;;;;6.95;6.28;;;12.40;99.90;;;;;;4896282;29;20233;-68
2023/08/30 04:29:09;;;;;;;6.13;5.33;;;12.40;99.90;;;;;;4895908;29;20597;-67
2023/08/30 04:31:36;;;;;;;6.30;5.60;;;12.40;99.90;;;;;;4895981;29;20489;-68
2023/08/30 04:34:04;;;;;;;5.53;4.90;;;12.50;99.90;;;;;;4896156;29;20211;-68
2023/08/30 04:36:31;;;;;;;6.38;5.82;;;12.50;99.90;;;;;;4896155;29;20505;-68
2023/08/30 04:38:57;;;;;;;8.10;7.10;;;12.50;99.90;;;;;;4895681;29;20223;-68
2023/08/30 04:41:24;;;;;;;6.70;5.37;;;12.50;99.90;;;;;;4895696;29;20316;-68
2023/08/30 04:43:51;;;;;;;6.03;5.43;;;12.50;99.90;;;;;;4895807;29;20463;-68
2023/08/30 04:46:18;;;;;;;6.30;5.70;;;12.50;99.90;;;;;;4896144;29;20463;-68
2023/08/30 04:48:44;;;;;;;6.13;5.53;;;12.50;99.90;;;;;;4895532;29;20491;-68
2023/08/30 04:51:12;;;;;;;5.93;5.03;;;12.50;99.90;;;;;;4895874;29;20834;-69
2023/08/30 04:53:41;;;;;;;5.90;5.30;;;12.50;99.90;;;;;;4895745;29;20463;-68
2023/08/30 04:56:12;;;;;;;5.65;5.15;;;12.50;99.90;;;;;;4894297;29;20239;-68
2023/08/30 04:58:39;;;;;;;6.28;5.68;;;12.50;99.90;;;;;;4896109;29;20214;-68
2023/08/30 05:01:06;;;;;;;6.20;5.60;;;12.60;99.90;;;;;;4896195;29;20223;-68
2023/08/30 05:03:33;;;;;;;5.50;5.00;;;12.50;99.90;;;;;;4896385;29;20526;-68
2023/08/30 05:06:00;;;;;;;6.77;6.07;;;12.50;99.90;;;;;;4896184;29;20207;-68
2023/08/30 05:08:28;;;;;;;6.87;6.27;;;12.60;99.90;;;;;;4895623;29;20726;-67
2023/08/30 05:10:55;;;;;;;7.13;6.43;;;12.60;99.90;;;;;;4896009;29;20466;-67
2023/08/30 05:13:22;;;;;;;6.07;5.20;;;12.60;99.90;;;;;;4895444;29;20967;-67
2023/08/30 05:15:48;;;;;;;6.20;5.60;;;12.60;99.90;;;;;;4895499;29;20682;-68
2023/08/30 05:18:15;;;;;;;5.88;5.28;;;12.60;99.90;;;;;;4895628;29;20203;-67
2023/08/30 05:20:42;;;;;;;6.13;5.53;;;12.60;99.90;;;;;;4895407;29;20363;-67
2023/08/30 05:23:08;;;;;;;5.63;5.07;;;12.60;99.90;;;;;;4894986;29;20207;-68
2023/08/30 05:25:36;;;;;;;6.40;5.20;;;12.60;99.90;;;;;;4895198;29;20477;-67
2023/08/30 05:28:03;;;;;;;5.45;4.95;;;12.60;99.90;;;;;;4895182;29;20474;-68
2023/08/30 05:30:30;;;;;;;4.97;4.47;;;12.60;99.90;;;;;;4895220;29;20230;-67
2023/08/30 05:32:57;;;;;;;6.17;5.57;;;12.70;99.90;;;;;;4895202;29;20835;-68
2023/08/30 05:35:23;;;;;;;6.53;5.93;;;12.70;99.90;;;;;;4895597;29;20467;-68
2023/08/30 05:37:50;;;;;;;6.10;5.20;;;12.70;99.90;;;;;;4895103;29;20570;-68
2023/08/30 05:40:17;;;;;;;5.13;4.70;;;12.70;99.90;;;;;;4895303;29;20559;-68
2023/08/30 05:42:46;;;;;;;4.97;4.53;;;12.70;99.90;;;;;;4894763;29;20841;-68
2023/08/30 05:45:13;;;;;;;5.50;4.77;;;12.70;99.90;;;;;;4895573;29;20214;-67
2023/08/30 05:47:39;;;;;;;5.60;5.10;;;12.70;99.90;;;;;;4895053;29;20557;-68
2023/08/30 05:50:07;;;;;;;6.32;5.63;;;12.70;99.90;;;;;;4922369;23;20498;-92
2023/08/30 05:52:34;;;;;;;6.10;5.43;;;12.80;99.90;;;;;;4890530;29;20222;-92
2023/08/30 05:55:01;;;;;;;6.17;5.57;;;12.80;99.90;;;;;;4888602;29;20460;-92
2023/08/30 05:57:33;;;;;;;6.38;5.57;;;12.80;99.90;;;;;;4889411;29;20473;-92
2023/08/30 06:00:01;;;;;;;5.85;5.10;;;12.80;99.90;;;;;;4888756;29;20239;-94
2023/08/30 06:02:27;;;;;;;6.32;5.72;;;12.90;99.90;;;;;;4892008;29;20207;-92
2023/08/30 06:04:54;;;;;;;6.10;5.50;;;12.90;99.90;;;;;;4890849;29;20203;-92
2023/08/30 06:07:21;;;;;;;5.25;4.75;;;12.90;99.90;;;;;;4899138;29;20219;-92
2023/08/30 06:09:48;;;;;;;5.87;5.27;;;12.90;99.90;;;;;;4900424;29;20231;-92
2023/08/30 06:12:15;;;;;;;5.60;5.07;;;13.00;99.90;;;;;;4898718;29;20462;-92
2023/08/30 06:14:41;;;;;;;5.87;5.27;;;13.00;99.90;;;;;;4898270;29;20466;-93
2023/08/30 06:17:10;;;;;;;5.85;5.30;;;13.00;99.90;;;;;;4895091;29;20495;-92
2023/08/30 06:19:36;;;;;;;8.30;5.10;;;13.10;99.90;;;;;;4891189;29;20774;-92
2023/08/30 06:22:03;;;;;;;6.13;5.57;;;13.10;99.90;;;;;;4896198;29;20452;-92
2023/08/30 06:24:30;;;;;;;5.10;4.40;;;13.10;99.90;;;;;;4901399;29;20543;-92
2023/08/30 06:26:57;;;;;;;5.90;5.30;;;13.10;99.90;;;;;;4893834;29;20829;-92
2023/08/30 06:29:24;;;;;;;5.80;5.03;;;13.10;99.90;;;;;;4893759;29;20498;-92
2023/08/30 06:31:51;;;;;;;5.57;4.80;;;13.20;99.90;;;;;;4890632;29;20463;-92
2023/08/30 06:34:19;;;;;;;5.43;4.93;;;13.20;99.90;;;;;;4892295;29;20469;-91
2023/08/30 06:36:46;;;;;;;5.80;5.20;;;13.20;99.90;;;;;;4894536;29;20841;-92
2023/08/30 06:39:15;;;;;;;6.17;5.67;;;13.20;99.90;;;;;;4896009;29;20478;-92
2023/08/30 06:41:42;;;;;;;7.97;5.37;;;13.20;99.90;;;;;;4893878;29;20482;-92
2023/08/30 06:44:09;;;;;;;5.93;5.30;;;13.20;99.90;;;;;;4899485;29;20476;-92
2023/08/30 06:46:41;;;;;;;5.87;5.27;;;13.30;99.90;;;;;;4896329;29;20472;-92
2023/08/30 06:49:09;;;;;;;9.20;5.23;;;13.30;99.90;;;;;;4899017;29;20771;-92
2023/08/30 06:51:37;;;;;;;5.90;5.30;;;13.30;99.90;;;;;;4903568;29;20467;-93
2023/08/30 06:54:04;;;;;;;4.83;4.40;;;13.30;99.90;;;;;;4895230;29;20460;-93
2023/08/30 06:56:31;;;;;;;5.73;5.20;;;13.40;99.90;;;;;;4903063;29;20500;-92
2023/08/30 06:58:58;;;;;;;6.00;5.40;;;13.40;99.90;;;;;;4898230;29;20495;-92
2023/08/30 07:01:24;;;;;;;5.50;4.90;;;13.40;99.90;;;;;;4897020;29;20488;-92
2023/08/30 07:03:51;;;;;;;4.97;4.47;;;13.40;99.90;;;;;;4894984;29;20978;-93
2023/08/30 07:06:18;;;;;;;5.63;4.90;;;13.50;99.90;;;;;;4899311;29;20534;-92
2023/08/30 07:08:49;;;;;;;5.43;4.93;;;13.50;99.90;;;;;;4895692;29;20475;-92
2023/08/30 07:11:16;;;;;;;6.67;4.40;;;13.40;99.90;;;;;;4893586;29;20461;-92
2023/08/30 07:13:42;;;;;;;6.00;5.40;;;13.40;99.90;;;;;;4894175;29;20465;-93
2023/08/30 07:16:09;;;;;;;5.43;4.80;;;13.40;99.90;;;;;;4896380;29;20469;-92
2023/08/30 07:18:36;;;;;;;5.50;5.00;;;13.40;99.90;;;;;;4898533;29;20474;-94
2023/08/30 07:21:03;;;;;;;6.00;5.20;;;13.40;99.90;;;;;;4900609;29;20478;-93
2023/08/30 07:23:30;;;;;;;6.23;5.37;;;13.50;99.90;;;;;;4895671;29;20474;-93
2023/08/30 07:25:58;;;;;;;5.67;5.17;;;13.50;99.90;;;;;;4901151;29;20463;-94
2023/08/30 07:31:03;;;;;;;6.10;4.63;;;13.50;99.90;;;;;;4901004;23;21042;-69
2023/08/30 07:33:30;;;;;;;5.53;5.03;;;13.50;99.90;;;;;;4892670;29;20523;-69
2023/08/30 07:35:57;;;;;;;5.20;4.70;;;13.60;99.90;;;;;;4887676;29;20464;-69
2023/08/30 07:38:24;;;;;;;5.87;5.37;;;13.60;99.90;;;;;;4891642;29;20474;-69
2023/08/30 07:41:06;;;;;;;5.17;4.47;;;13.60;99.90;;;;;;5127989;27;20948;-67
2023/08/30 07:43:33;;;;;;;4.53;4.10;;;13.60;99.90;;;;;;5128291;28;20466;-67
2023/08/30 07:46:00;;;;;;;5.50;4.97;;;13.60;99.90;;;;;;5128011;28;20454;-67
2023/08/30 07:48:27;;;;;;;4.13;3.70;;;13.70;99.90;;;;;;5128453;28;20451;-67
2023/08/30 07:50:53;;;;;;;4.10;3.80;;;13.70;99.90;;;;;;5116675;27;20464;-67
2023/08/30 07:53:20;;;;;;;4.30;3.90;;;13.70;99.90;;;;;;5125613;27;20465;-67
2023/08/30 07:55:49;;;;;;;5.07;4.67;;;13.80;99.90;;;;;;5127733;27;20462;-68
2023/08/30 07:58:18;;;;;;;5.07;4.57;;;13.80;99.90;;;;;;5127494;27;20516;-67
2023/08/30 08:00:45;;;;;;;4.47;3.97;;;13.70;99.90;;;;;;5127254;27;20490;-69
2023/08/30 08:03:12;;;;;;;4.87;4.47;;;13.70;99.90;;;;;;5127541;27;20458;-67
2023/08/30 08:05:38;;;;;;;7.30;5.40;;;13.70;99.90;;;;;;5127514;27;20538;-67
2023/08/30 08:08:05;;;;;;;5.00;4.50;;;13.70;99.90;;;;;;5127294;27;20545;-69
2023/08/30 08:10:34;;;;;;;5.20;4.70;;;13.70;99.90;;;;;;5127964;27;20981;-69
2023/08/30 08:13:01;;;;;;;5.60;4.63;;;13.70;99.90;;;;;;5114047;28;20463;-69
2023/08/30 08:15:30;;;;;;;5.10;4.63;;;13.70;99.90;;;;;;5121381;28;20854;-69
2023/08/30 08:17:57;;;;;;;4.60;4.27;;;13.80;99.90;;;;;;5127062;27;20456;-69
2023/08/30 08:20:24;;;;;;;5.23;4.73;;;13.90;99.90;;;;;;5127085;27;20472;-69
2023/08/30 08:22:50;;;;;;;5.37;4.87;;;13.90;99.90;;;;;;5126925;27;20459;-68
2023/08/30 08:25:17;;;;;;;5.90;4.50;;;13.90;99.90;;;;;;5127701;27;20466;-67
2023/08/30 08:27:44;;;;;;;5.13;4.63;;;14.00;99.90;;;;;;5127094;27;20462;-67
2023/08/30 08:30:12;;;;;;;4.80;4.33;;;14.10;99.90;;;;;;5126734;27;20475;-67
2023/08/30 08:32:40;;;;;;;5.00;4.43;;;14.10;99.90;;;;;;5127173;27;20458;-67
2023/08/30 08:35:07;;;;;;;5.23;4.70;;;14.10;99.90;;;;;;5127050;27;20459;-67
2023/08/30 08:37:34;;;;;;;4.33;3.93;;;14.10;99.90;;;;;;5127057;27;21011;-67
2023/08/30 08:40:08;;;;;;;5.03;4.53;;;14.10;99.90;;;;;;5126629;27;20989;-67
2023/08/30 08:42:35;;;;;;;5.03;4.53;;;14.10;99.90;;;;;;5127028;27;20467;-67
2023/08/30 08:45:03;;;;;;;5.27;4.70;;;14.00;99.90;;;;;;5126749;27;20451;-67
2023/08/30 08:47:31;;;;;;;4.17;3.77;;;14.10;99.90;;;;;;5127304;27;20474;-67
2023/08/30 08:50:00;;;;;;;4.93;4.43;;;14.10;99.90;;;;;;5126777;27;20474;-67
2023/08/30 08:52:27;;;;;;;6.93;4.00;;;14.30;99.90;;;;;;5113251;27;20461;-67
2023/08/30 08:54:55;;;;;;;4.93;4.07;;;14.40;99.90;;;;;;5112994;28;20466;-67
2023/08/30 08:57:22;;;;;;;4.77;4.27;;;14.60;99.90;;;;;;5113669;28;20453;-67
2023/08/30 08:59:50;;;;;;;4.27;3.93;;;14.70;99.90;;;;;;5112893;28;20904;-67
2023/08/30 09:02:17;;;;;;;4.43;4.03;;;14.90;99.90;;;;;;5112879;28;20488;-67
2023/08/30 09:04:44;;;;;;;4.93;4.40;;;15.10;99.90;;;;;;5113033;28;20536;-67
2023/08/30 09:07:12;;;;;;;5.33;3.53;;;15.20;99.90;;;;;;5112478;28;20445;-67
2023/08/30 09:09:39;;;;;;;3.33;3.10;;;15.40;99.90;;;;;;5112919;28;20476;-67
2023/08/30 09:12:06;;;;;;;4.10;3.80;;;15.50;99.90;;;;;;5112367;27;20459;-67
2023/08/30 09:14:33;;;;;;;4.07;3.67;;;15.60;99.90;;;;;;5112884;28;20460;-67
2023/08/30 09:17:02;;;;;;;4.27;3.87;;;15.70;99.90;;;;;;5108615;28;20836;-67
2023/08/30 09:19:29;;;;;;;3.60;3.20;;;15.80;99.90;;;;;;5110702;28;20488;-67
2023/08/30 09:21:58;;;;;;;4.23;3.83;;;15.80;99.90;;;;;;5111909;28;20457;-67
2023/08/30 09:24:38;;;;;;;3.50;3.20;;;16.00;99.90;;;;;;5112735;28;20460;-67
2023/08/30 09:27:05;;;;;;;3.60;3.30;;;16.10;99.90;;;;;;5112214;28;20449;-68
2023/08/30 09:29:32;;;;;;;3.60;3.30;;;16.20;99.90;;;;;;5112318;28;20480;-67
2023/08/30 09:31:59;;;;;;;3.60;3.30;;;16.40;99.90;;;;;;5111875;28;20514;-67
2023/08/30 09:34:26;;;;;;;3.90;3.53;;;16.50;99.90;;;;;;5112574;28;20457;-67
2023/08/30 09:36:53;;;;;;;3.20;2.90;;;16.60;99.90;;;;;;5112038;28;20445;-67
2023/08/30 09:39:20;;;;;;;3.10;2.80;;;16.70;99.90;;;;;;5112181;27;20499;-68
2023/08/30 09:41:50;;;;;;;3.30;3.00;;;16.80;99.90;;;;;;5112765;28;20453;-67
2023/08/30 09:44:18;;;;;;;2.97;2.67;;;17.10;99.90;;;;;;5104074;28;20502;-68
2023/08/30 09:46:46;;;;;;;2.83;2.63;;;17.20;99.90;;;;;;5112375;28;20460;-68
2023/08/30 09:49:13;;;;;;;2.90;2.60;;;17.40;99.90;;;;;;5111379;28;20483;-68
2023/08/30 09:51:42;;;;;;;2.60;2.40;;;17.60;99.90;;;;;;5112189;28;20456;-68
2023/08/30 09:54:16;;;;;;;2.70;2.50;;;17.70;99.90;;;;;;5112012;27;20905;-70
2023/08/30 09:56:44;;;;;;;3.43;3.13;;;17.80;99.90;;;;;;5112460;28;20478;-67
2023/08/30 09:59:13;;;;;;;2.40;2.20;;;17.90;99.90;;;;;;5111795;28;20509;-68
2023/08/30 10:01:40;;;;;;;2.67;2.20;;;18.00;99.90;;;;;;5111944;27;20476;-68
2023/08/30 10:04:08;;;;;;;2.47;2.27;;;18.10;99.90;;;;;;5110739;28;20453;-67
2023/08/30 10:06:36;;;;;;;2.43;2.23;;;18.30;99.90;;;;;;5111929;28;20806;-67
2023/08/30 10:09:04;;;;;;;2.57;2.37;;;18.50;99.90;;;;;;5110843;28;20502;-68
2023/08/30 10:11:34;;;;;;;2.47;2.27;;;18.60;99.90;;;;;;5111684;27;20502;-68
2023/08/30 10:14:01;;;;;;;2.43;2.00;;;18.70;99.90;;;;;;5111089;28;20457;-68
2023/08/30 10:16:32;;;;;;;2.70;2.50;;;18.80;99.90;;;;;;5111463;28;20851;-68
2023/08/30 10:19:04;;;;;;;2.67;2.47;;;18.90;99.90;;;;;;5110943;28;20480;-67
2023/08/30 10:21:32;;;;;;;3.80;2.77;;;19.00;99.90;;;;;;5111353;28;20483;-68
2023/08/30 10:24:01;;;;;;;2.40;2.20;;;19.10;99.90;;;;;;5111083;28;20464;-68
2023/08/30 10:26:29;;;;;;;2.30;2.10;;;19.20;99.90;;;;;;5111693;28;20462;-68
2023/08/30 10:28:58;;;;;;;2.60;2.40;;;19.30;99.90;;;;;;5111402;28;20482;-67
2023/08/30 10:31:25;;;;;;;2.10;2.00;;;19.40;99.90;;;;;;5111450;28;20453;-67
2023/08/30 10:33:55;;;;;;;2.80;2.60;;;19.50;99.90;;;;;;5111736;27;20790;-67
2023/08/30 10:36:23;;;;;;;2.50;2.30;;;19.50;99.90;;;;;;5111799;28;20848;-68
2023/08/30 10:38:50;;;;;;;2.97;2.53;;;19.50;99.90;;;;;;5111154;28;21070;-67
2023/08/30 10:41:22;;;;;;;2.40;2.20;;;19.60;99.90;;;;;;5110964;28;20483;-68
2023/08/30 10:43:52;;;;;;;3.43;2.67;;;19.70;99.90;;;;;;5111390;28;20536;-67
2023/08/30 10:46:29;;;;;;;2.33;2.13;;;19.70;99.90;;;;;;5111172;28;20464;-67
2023/08/30 10:48:58;;;;;;;1.90;1.80;;;19.60;99.90;;;;;;5111023;28;20468;-68
2023/08/30 10:51:37;;;;;;;3.00;2.47;;;19.70;99.90;;;;;;5111145;28;20457;-67
2023/08/30 10:54:11;;;;;;;2.07;1.87;;;19.80;99.90;;;;;;5110914;28;20453;-67
2023/08/30 10:56:47;;;;;;;2.00;1.80;;;20.00;99.90;;;;;;5111355;28;20454;-67
2023/08/30 10:59:18;;;;;;;2.17;1.90;;;20.20;99.90;;;;;;5110720;28;20474;-68
2023/08/30 11:01:46;;;;;;;2.17;2.00;;;20.20;99.90;;;;;;5109888;28;20534;-68
2023/08/30 11:04:16;;;;;;;2.30;2.10;;;20.30;99.90;;;;;;5110338;28;20833;-67
2023/08/30 11:06:45;;;;;;;2.60;2.40;;;20.20;99.90;;;;;;5110875;28;20463;-67
2023/08/30 11:09:14;;;;;;;2.73;1.87;;;20.10;99.90;;;;;;5110267;28;20476;-68
2023/08/30 11:11:41;;;;;;;2.10;2.00;;;20.10;99.90;;;;;;5110583;28;20463;-67
2023/08/30 11:14:08;;;;;;;2.20;2.10;;;20.20;99.90;;;;;;5110293;28;20453;-68
2023/08/30 11:16:35;;;;;;;1.90;1.80;;;20.30;99.90;;;;;;5110981;28;20453;-67
2023/08/30 11:19:02;;;;;;;2.57;2.13;;;20.40;99.90;;;;;;5110362;28;20473;-67
2023/08/30 11:21:33;;;;;;;1.90;1.53;;;20.50;99.90;;;;;;5106641;28;20863;-68
2023/08/30 11:24:00;;;;;;;2.20;1.80;;;20.60;99.90;;;;;;5107059;28;20988;-67
2023/08/30 11:26:26;;;;;;;2.47;2.10;;;20.60;99.90;;;;;;5110721;27;20472;-68
2023/08/30 11:28:53;;;;;;;2.33;2.13;;;20.50;99.90;;;;;;5110478;28;20480;-68
2023/08/30 11:31:22;;;;;;;2.20;2.00;;;20.40;99.90;;;;;;5110094;28;20450;-68
2023/08/30 11:33:52;;;;;;;2.37;2.17;;;20.40;99.90;;;;;;5110482;28;20453;-68
2023/08/30 11:36:21;;;;;;;2.03;1.93;;;20.40;99.90;;;;;;5110352;28;20446;-68
2023/08/30 11:38:50;;;;;;;2.13;1.93;;;20.30;99.90;;;;;;5110290;28;20484;-68
2023/08/30 11:41:17;;;;;;;2.57;2.13;;;20.20;99.90;;;;;;5109941;28;20477;-68
2023/08/30 11:43:44;;;;;;;2.43;2.23;;;20.10;99.90;;;;;;5110590;28;20457;-68
2023/08/30 11:46:12;;;;;;;2.60;2.40;;;19.80;99.90;;;;;;5110316;28;20449;-68
2023/08/30 11:48:39;;;;;;;2.30;2.10;;;19.50;99.90;;;;;;5110332;28;20501;-68
2023/08/30 11:51:18;;;;;;;1.90;1.80;;;19.30;99.90;;;;;;5129266;22;20489;-93
2023/08/30 11:54:02;;;;;;;2.43;2.23;;;19.20;99.90;;;;;;5068871;28;20488;-91
2023/08/30 11:56:43;;;;;;;2.00;1.90;;;18.80;99.90;;;;;;5066574;28;20447;-94
2023/08/30 11:59:22;;;;;;;2.73;2.10;;;18.50;99.90;;;;;;5064526;28;20460;-94
2023/08/30 12:01:49;;;;;;;2.33;2.13;;;18.10;99.90;;;;;;5060809;28;20480;-93
2023/08/30 12:04:18;;;;;;;2.63;2.27;;;17.90;99.90;;;;;;5057709;28;20466;-94
2023/08/30 12:06:45;;;;;;;3.17;1.93;;;17.60;99.90;;;;;;5064771;28;20537;-93
2023/08/30 12:09:15;;;;;;;2.07;1.77;;;17.40;99.90;;;;;;5062243;28;20460;-93
2023/08/30 12:11:45;;;;;;;2.27;1.67;;;17.20;99.90;;;;;;5066254;28;20476;-92
2023/08/30 12:17:21;;;;;;;2.27;2.07;;;16.80;99.90;;;;;;4978780;28;20480;-93
2023/08/30 12:20:07;;;;;;;2.10;1.97;;;16.70;99.90;;;;;;5063048;28;20475;-93
2023/08/30 12:22:40;;;;;;;2.57;2.37;;;16.60;99.90;;;;;;5067866;28;20451;-94
2023/08/30 12:25:37;;;;;;;;;;;;;;;;;;;;;
2023/08/30 12:28:28;;;;;;;2.43;2.23;;;16.40;99.90;;;;;;5079369;28;20430;-94
2023/08/30 12:30:55;;;;;;;2.70;2.50;;;16.40;99.90;;;;;;5073453;28;20472;-94
2023/08/30 12:49:02;;;;;;;2.30;2.10;;;16.60;99.90;;;;;;4939263;29;20584;-93
2023/08/30 12:51:49;;;;;;;2.37;2.17;;;16.70;99.90;;;;;;4960057;29;20471;-95
2023/08/30 13:00:55;;;;;;;2.90;2.70;;;16.70;99.90;;;;;;4973786;23;20482;-68
2023/08/30 13:03:22;;;;;;;3.10;2.80;;;16.70;99.90;;;;;;5072638;28;20835;-67
2023/08/30 13:05:48;;;;;;;3.20;3.00;;;16.70;99.90;;;;;;5073173;28;20454;-67
2023/08/30 13:08:15;;;;;;;3.57;2.60;;;16.80;99.90;;;;;;5072741;28;20460;-66
2023/08/30 13:10:42;;;;;;;2.13;1.93;;;16.70;99.90;;;;;;5053538;28;21018;-67
2023/08/30 13:13:08;;;;;;;2.30;2.10;;;16.80;99.90;;;;;;5052639;28;20535;-67
2023/08/30 13:15:35;;;;;;;2.33;2.13;;;16.80;99.90;;;;;;5052468;28;20457;-67
2023/08/30 13:18:03;;;;;;;2.70;2.50;;;16.80;99.90;;;;;;5052794;28;20935;-67
2023/08/30 13:20:30;;;;;;;2.40;2.20;;;16.80;99.90;;;;;;5053018;28;20491;-67